createdAt,value
2018-10-11T00:00:17.621Z,40.00
2018-10-11T00:01:17.640Z,40.00
2018-10-11T00:02:17.662Z,40.00
2018-10-11T00:03:17.773Z,40.00
2018-10-11T00:04:17.692Z,40.00
2018-10-11T00:05:17.708Z,40.00
2018-10-11T00:06:17.720Z,40.00
2018-10-11T00:07:17.733Z,40.00
2018-10-11T00:08:17.849Z,44.00
2018-10-11T00:09:17.749Z,40.00
2018-10-11T00:10:17.777Z,40.00
2018-10-11T00:11:17.795Z,40.00
2018-10-11T00:12:17.811Z,40.00
2018-10-11T00:13:17.936Z,40.00
2018-10-11T00:14:17.865Z,44.00
2018-10-11T00:15:17.865Z,44.00
2018-10-11T00:16:17.864Z,40.00
2018-10-11T00:17:17.891Z,40.00
2018-10-11T00:18:17.993Z,40.00
2018-10-11T00:19:17.922Z,40.00
2018-10-11T00:20:18.060Z,44.00
2018-10-11T00:21:17.953Z,40.00
2018-10-11T00:22:18.107Z,40.00
2018-10-11T00:23:18.084Z,40.00
2018-10-11T00:24:18.000Z,40.00
2018-10-11T00:25:18.014Z,40.00
2018-10-11T00:26:18.018Z,44.00
2018-10-11T00:27:18.048Z,40.00
2018-10-11T00:28:18.061Z,40.00
2018-10-11T00:29:18.177Z,44.00
2018-10-11T00:30:18.093Z,44.00
2018-10-11T00:31:18.109Z,44.00
2018-10-11T00:32:18.121Z,40.00
2018-10-11T00:33:18.141Z,40.00
2018-10-11T00:34:18.254Z,44.00
2018-10-11T00:35:18.173Z,44.00
2018-10-11T00:36:18.593Z,44.00
2018-10-11T00:37:18.200Z,44.00
2018-10-11T00:38:18.243Z,44.00
2018-10-11T00:39:18.316Z,44.00
2018-10-11T00:40:18.245Z,40.00
2018-10-11T00:41:18.263Z,40.00
2018-10-11T00:42:18.278Z,40.00
2018-10-11T00:43:18.291Z,44.00
2018-10-11T00:44:18.411Z,44.00
2018-10-11T00:45:18.324Z,40.00
2018-10-11T00:46:18.323Z,44.00
2018-10-11T00:47:18.351Z,44.00
2018-10-11T00:48:18.355Z,44.00
2018-10-11T00:49:18.531Z,44.00
2018-10-11T00:50:18.421Z,44.00
2018-10-11T00:51:18.404Z,44.00
2018-10-11T00:52:18.430Z,40.00
2018-10-11T00:53:18.447Z,40.00
2018-10-11T00:54:18.561Z,40.00
2018-10-11T00:55:18.480Z,44.00
2018-10-11T00:56:18.479Z,44.00
2018-10-11T00:57:18.509Z,44.00
2018-10-11T00:58:18.520Z,40.00
2018-10-11T00:59:18.639Z,44.00
2018-10-11T01:00:18.539Z,40.00
2018-10-11T01:01:18.570Z,40.00
2018-10-11T01:02:18.585Z,40.00
2018-10-11T01:03:18.584Z,40.00
2018-10-11T01:04:18.716Z,44.00
2018-10-11T01:05:18.635Z,44.00
2018-10-11T01:06:18.648Z,44.00
2018-10-11T01:07:18.664Z,44.00
2018-10-11T01:08:18.679Z,44.00
2018-10-11T01:09:18.889Z,44.00
2018-10-11T01:10:18.710Z,44.00
2018-10-11T01:11:18.725Z,44.00
2018-10-11T01:12:18.830Z,44.00
2018-10-11T01:13:18.754Z,40.00
2018-10-11T01:14:18.870Z,44.00
2018-10-11T01:15:18.785Z,40.00
2018-10-11T01:16:18.799Z,44.00
2018-10-11T01:17:18.813Z,40.00
2018-10-11T01:18:18.835Z,40.00
2018-10-11T01:19:18.996Z,44.00
2018-10-11T01:20:18.864Z,40.00
2018-10-11T01:21:18.876Z,44.00
2018-10-11T01:22:18.895Z,44.00
2018-10-11T01:23:18.906Z,44.00
2018-10-11T01:24:19.028Z,44.00
2018-10-11T01:25:18.961Z,44.00
2018-10-11T01:26:18.956Z,44.00
2018-10-11T01:27:18.970Z,44.00
2018-10-11T01:28:18.986Z,40.00
2018-10-11T01:29:19.104Z,40.00
2018-10-11T01:30:19.014Z,40.00
2018-10-11T01:31:19.031Z,40.00
2018-10-11T01:32:19.047Z,40.00
2018-10-11T01:33:19.047Z,40.00
2018-10-11T01:34:19.075Z,40.00
2018-10-11T01:35:19.227Z,44.00
2018-10-11T01:36:19.089Z,44.00
2018-10-11T01:37:19.110Z,40.00
2018-10-11T01:38:19.140Z,40.00
2018-10-11T01:39:19.152Z,40.00
2018-10-11T01:40:19.255Z,40.00
2018-10-11T01:41:19.185Z,40.00
2018-10-11T01:42:19.204Z,44.00
2018-10-11T01:43:19.217Z,44.00
2018-10-11T01:44:19.232Z,44.00
2018-10-11T01:45:19.347Z,44.00
2018-10-11T01:46:19.269Z,44.00
2018-10-11T01:47:19.274Z,40.00
2018-10-11T01:48:19.291Z,40.00
2018-10-11T01:49:19.309Z,44.00
2018-10-11T01:50:19.474Z,40.00
2018-10-11T01:51:19.342Z,44.00
2018-10-11T01:52:19.350Z,44.00
2018-10-11T01:53:19.370Z,44.00
2018-10-11T01:54:19.395Z,40.00
2018-10-11T01:55:19.502Z,40.00
2018-10-11T01:56:19.413Z,44.00
2018-10-11T01:57:19.427Z,44.00
2018-10-11T01:58:19.448Z,44.00
2018-10-11T01:59:19.458Z,44.00
2018-10-11T02:00:19.572Z,44.00
2018-10-11T02:01:19.474Z,40.00
2018-10-11T02:02:19.500Z,44.00
2018-10-11T02:03:19.521Z,44.00
2018-10-11T02:04:19.522Z,44.00
2018-10-11T02:05:19.702Z,44.00
2018-10-11T02:06:19.564Z,44.00
2018-10-11T02:07:19.577Z,44.00
2018-10-11T02:08:19.585Z,44.00
2018-10-11T02:09:19.654Z,44.00
2018-10-11T02:10:19.780Z,44.00
2018-10-11T02:11:19.644Z,44.00
2018-10-11T02:12:19.659Z,44.00
2018-10-11T02:13:19.674Z,44.00
2018-10-11T02:14:19.689Z,40.00
2018-10-11T02:15:19.807Z,40.00
2018-10-11T02:16:19.724Z,40.00
2018-10-11T02:17:19.730Z,40.00
2018-10-11T02:18:19.751Z,40.00
2018-10-11T02:19:19.765Z,40.00
2018-10-11T02:20:19.878Z,40.00
2018-10-11T02:21:19.796Z,40.00
2018-10-11T02:22:19.811Z,40.00
2018-10-11T02:23:19.826Z,40.00
2018-10-11T02:24:19.842Z,40.00
2018-10-11T02:25:19.959Z,40.00
2018-10-11T02:26:19.873Z,40.00
2018-10-11T02:27:19.887Z,40.00
2018-10-11T02:28:19.890Z,40.00
2018-10-11T02:29:19.919Z,40.00
2018-10-11T02:30:20.099Z,40.00
2018-10-11T02:31:19.953Z,40.00
2018-10-11T02:32:19.964Z,40.00
2018-10-11T02:33:19.982Z,40.00
2018-10-11T02:34:19.985Z,40.00
2018-10-11T02:35:20.161Z,40.00
2018-10-11T02:36:20.008Z,40.00
2018-10-11T02:37:20.040Z,40.00
2018-10-11T02:38:20.055Z,44.00
2018-10-11T02:39:20.073Z,40.00
2018-10-11T02:40:20.200Z,40.00
2018-10-11T02:41:20.101Z,40.00
2018-10-11T02:42:20.121Z,40.00
2018-10-11T02:43:20.115Z,40.00
2018-10-11T02:44:20.150Z,44.00
2018-10-11T02:45:20.315Z,40.00
2018-10-11T02:46:20.183Z,40.00
2018-10-11T02:47:20.179Z,40.00
2018-10-11T02:48:20.211Z,40.00
2018-10-11T02:49:20.210Z,44.00
2018-10-11T02:50:20.379Z,40.00
2018-10-11T02:51:20.257Z,40.00
2018-10-11T02:52:20.259Z,44.00
2018-10-11T02:53:20.290Z,40.00
2018-10-11T02:54:20.306Z,40.00
2018-10-11T02:55:20.422Z,40.00
2018-10-11T02:56:20.333Z,44.00
2018-10-11T02:57:20.350Z,40.00
2018-10-11T02:58:20.363Z,40.00
2018-10-11T02:59:20.377Z,40.00
2018-10-11T03:00:20.494Z,44.00
2018-10-11T03:01:20.401Z,44.00
2018-10-11T03:02:20.424Z,44.00
2018-10-11T03:03:20.437Z,44.00
2018-10-11T03:04:20.460Z,44.00
2018-10-11T03:05:20.573Z,40.00
2018-10-11T03:06:20.486Z,40.00
2018-10-11T03:07:20.503Z,40.00
2018-10-11T03:08:20.519Z,40.00
2018-10-11T03:09:20.535Z,40.00
2018-10-11T03:10:20.650Z,40.00
2018-10-11T03:11:20.547Z,40.00
2018-10-11T03:12:20.570Z,40.00
2018-10-11T03:13:20.584Z,40.00
2018-10-11T03:14:20.614Z,44.00
2018-10-11T03:15:20.725Z,44.00
2018-10-11T03:16:20.628Z,44.00
2018-10-11T03:17:20.660Z,40.00
2018-10-11T03:18:20.670Z,40.00
2018-10-11T03:19:20.676Z,40.00
2018-10-11T03:20:20.800Z,40.00
2018-10-11T03:21:20.705Z,40.00
2018-10-11T03:22:20.736Z,40.00
2018-10-11T03:23:20.750Z,40.00
2018-10-11T03:24:20.789Z,40.00
2018-10-11T03:25:20.928Z,44.00
2018-10-11T03:26:20.794Z,40.00
2018-10-11T03:27:20.809Z,44.00
2018-10-11T03:28:20.828Z,44.00
2018-10-11T03:29:20.838Z,44.00
2018-10-11T03:30:20.962Z,40.00
2018-10-11T03:31:20.873Z,40.00
2018-10-11T03:32:20.892Z,40.00
2018-10-11T03:33:20.905Z,44.00
2018-10-11T03:34:20.918Z,44.00
2018-10-11T03:35:21.033Z,40.00
2018-10-11T03:36:20.948Z,44.00
2018-10-11T03:37:20.965Z,44.00
2018-10-11T03:38:20.966Z,44.00
2018-10-11T03:39:20.994Z,40.00
2018-10-11T03:40:21.020Z,44.00
2018-10-11T03:41:21.129Z,44.00
2018-10-11T03:42:21.049Z,44.00
2018-10-11T03:43:21.063Z,40.00
2018-10-11T03:44:21.077Z,44.00
2018-10-11T03:45:21.091Z,44.00
2018-10-11T03:46:21.265Z,40.00
2018-10-11T03:47:21.121Z,40.00
2018-10-11T03:48:21.137Z,40.00
2018-10-11T03:49:21.152Z,40.00
2018-10-11T03:50:21.168Z,40.00
2018-10-11T03:51:21.436Z,40.00
2018-10-11T03:52:21.194Z,44.00
2018-10-11T03:53:21.215Z,40.00
2018-10-11T03:54:21.230Z,44.00
2018-10-11T03:55:21.249Z,40.00
2018-10-11T03:56:21.395Z,40.00
2018-10-11T03:57:21.276Z,40.00
2018-10-11T03:58:21.291Z,40.00
2018-10-11T03:59:21.291Z,40.00
2018-10-11T04:00:21.308Z,40.00
2018-10-11T04:01:21.444Z,40.00
2018-10-11T04:02:21.359Z,40.00
2018-10-11T04:03:21.356Z,40.00
2018-10-11T04:04:21.388Z,40.00
2018-10-11T04:05:21.404Z,40.00
2018-10-11T04:06:21.519Z,40.00
2018-10-11T04:07:21.431Z,40.00
2018-10-11T04:08:21.448Z,40.00
2018-10-11T04:09:21.466Z,44.00
2018-10-11T04:10:21.479Z,40.00
2018-10-11T04:11:21.640Z,40.00
2018-10-11T04:12:21.509Z,44.00
2018-10-11T04:13:21.523Z,40.00
2018-10-11T04:14:21.520Z,40.00
2018-10-11T04:15:21.592Z,40.00
2018-10-11T04:16:21.719Z,40.00
2018-10-11T04:17:21.586Z,40.00
2018-10-11T04:18:21.597Z,40.00
2018-10-11T04:19:21.619Z,40.00
2018-10-11T04:20:21.635Z,40.00
2018-10-11T04:21:21.780Z,40.00
2018-10-11T04:22:21.649Z,40.00
2018-10-11T04:23:21.679Z,40.00
2018-10-11T04:24:21.694Z,40.00
2018-10-11T04:25:21.708Z,44.00
2018-10-11T04:26:21.811Z,40.00
2018-10-11T04:27:21.733Z,40.00
2018-10-11T04:28:21.754Z,40.00
2018-10-11T04:29:21.772Z,40.00
2018-10-11T04:30:21.785Z,40.00
2018-10-11T04:31:21.900Z,40.00
2018-10-11T04:32:21.814Z,40.00
2018-10-11T04:33:21.817Z,40.00
2018-10-11T04:34:21.845Z,40.00
2018-10-11T04:35:21.850Z,40.00
2018-10-11T04:36:22.035Z,40.00
2018-10-11T04:37:21.877Z,40.00
2018-10-11T04:38:21.904Z,40.00
2018-10-11T04:39:21.921Z,40.00
2018-10-11T04:40:21.937Z,44.00
2018-10-11T04:41:22.106Z,40.00
2018-10-11T04:42:21.969Z,44.00
2018-10-11T04:43:22.127Z,40.00
2018-10-11T04:44:21.998Z,40.00
2018-10-11T04:45:22.014Z,40.00
2018-10-11T04:46:22.029Z,40.00
2018-10-11T04:47:22.138Z,40.00
2018-10-11T04:48:22.058Z,40.00
2018-10-11T04:49:22.072Z,40.00
2018-10-11T04:50:22.130Z,40.00
2018-10-11T04:51:22.105Z,40.00
2018-10-11T04:52:22.270Z,40.00
2018-10-11T04:53:22.135Z,40.00
2018-10-11T04:54:22.152Z,40.00
2018-10-11T04:55:22.164Z,40.00
2018-10-11T04:56:22.179Z,40.00
2018-10-11T04:57:22.348Z,40.00
2018-10-11T04:58:22.199Z,40.00
2018-10-11T04:59:22.227Z,40.00
2018-10-11T05:00:22.240Z,40.00
2018-10-11T05:01:22.257Z,40.00
2018-10-11T05:02:22.427Z,40.00
2018-10-11T05:03:22.283Z,40.00
2018-10-11T05:04:22.308Z,40.00
2018-10-11T05:05:22.377Z,40.00
2018-10-11T05:06:22.334Z,40.00
2018-10-11T05:07:22.450Z,40.00
2018-10-11T05:08:22.367Z,40.00
2018-10-11T05:09:22.383Z,40.00
2018-10-11T05:10:22.396Z,40.00
2018-10-11T05:11:22.397Z,40.00
2018-10-11T05:12:22.670Z,40.00
2018-10-11T05:13:22.422Z,40.00
2018-10-11T05:14:22.451Z,40.00
2018-10-11T05:15:22.485Z,40.00
2018-10-11T05:16:22.469Z,40.00
2018-10-11T05:17:22.731Z,40.00
2018-10-11T05:18:22.516Z,40.00
2018-10-11T05:19:22.576Z,40.00
2018-10-11T05:20:22.551Z,40.00
2018-10-11T05:21:22.564Z,40.00
2018-10-11T05:22:22.661Z,40.00
2018-10-11T05:23:22.590Z,40.00
2018-10-11T05:24:22.607Z,40.00
2018-10-11T05:25:22.622Z,40.00
2018-10-11T05:26:22.646Z,40.00
2018-10-11T05:27:22.753Z,40.00
2018-10-11T05:28:22.668Z,40.00
2018-10-11T05:29:22.681Z,40.00
2018-10-11T05:30:22.698Z,40.00
2018-10-11T05:31:22.715Z,40.00
2018-10-11T05:32:22.953Z,40.00
2018-10-11T05:33:22.742Z,40.00
2018-10-11T05:34:22.755Z,40.00
2018-10-11T05:35:22.776Z,40.00
2018-10-11T05:36:22.777Z,40.00
2018-10-11T05:37:23.255Z,40.00
2018-10-11T05:38:22.822Z,40.00
2018-10-11T05:39:22.822Z,40.00
2018-10-11T05:40:22.853Z,40.00
2018-10-11T05:41:22.866Z,40.00
2018-10-11T05:42:22.884Z,40.00
2018-10-11T05:43:23.046Z,40.00
2018-10-11T05:44:22.976Z,40.00
2018-10-11T05:45:22.936Z,40.00
2018-10-11T05:46:22.945Z,40.00
2018-10-11T05:47:22.961Z,40.00
2018-10-11T05:48:22.970Z,40.00
2018-10-11T05:49:23.094Z,40.00
2018-10-11T05:50:23.034Z,40.00
2018-10-11T05:51:23.017Z,40.00
2018-10-11T05:52:23.023Z,40.00
2018-10-11T05:53:23.059Z,40.00
2018-10-11T05:54:23.200Z,40.00
2018-10-11T05:55:23.071Z,40.00
2018-10-11T05:56:23.091Z,40.00
2018-10-11T05:57:23.109Z,40.00
2018-10-11T05:58:23.126Z,40.00
2018-10-11T05:59:23.245Z,40.00
2018-10-11T06:00:23.159Z,40.00
2018-10-11T06:01:23.179Z,40.00
2018-10-11T06:02:23.192Z,40.00
2018-10-11T06:03:23.204Z,40.00
2018-10-11T06:04:23.450Z,40.00
2018-10-11T06:05:23.229Z,40.00
2018-10-11T06:06:23.252Z,40.00
2018-10-11T06:07:23.261Z,40.00
2018-10-11T06:08:23.266Z,40.00
2018-10-11T06:09:23.450Z,40.00
2018-10-11T06:10:23.311Z,40.00
2018-10-11T06:11:23.315Z,40.00
2018-10-11T06:12:23.532Z,40.00
2018-10-11T06:13:23.357Z,40.00
2018-10-11T06:14:23.610Z,40.00
2018-10-11T06:15:23.385Z,44.00
2018-10-11T06:16:23.384Z,40.00
2018-10-11T06:17:23.420Z,40.00
2018-10-11T06:18:23.421Z,40.00
2018-10-11T06:19:23.595Z,40.00
2018-10-11T06:20:23.460Z,40.00
2018-10-11T06:21:23.479Z,40.00
2018-10-11T06:22:23.478Z,40.00
2018-10-11T06:23:23.490Z,36.00
2018-10-11T06:24:23.773Z,36.00
2018-10-11T06:25:23.538Z,40.00
2018-10-11T06:26:23.552Z,40.00
2018-10-11T06:27:23.549Z,40.00
2018-10-11T06:28:23.580Z,40.00
2018-10-11T06:29:23.698Z,40.00
2018-10-11T06:30:23.754Z,40.00
2018-10-11T06:31:23.624Z,40.00
2018-10-11T06:32:23.630Z,40.00
2018-10-11T06:33:23.650Z,36.00
2018-10-11T06:34:23.823Z,36.00
2018-10-11T06:35:23.688Z,36.00
2018-10-11T06:36:23.719Z,40.00
2018-10-11T06:37:23.717Z,36.00
2018-10-11T06:38:23.730Z,40.00
2018-10-11T06:39:24.043Z,40.00
2018-10-11T06:40:23.762Z,40.00
2018-10-11T06:41:23.780Z,40.00
2018-10-11T06:42:23.868Z,40.00
2018-10-11T06:43:23.811Z,40.00
2018-10-11T06:44:23.975Z,40.00
2018-10-11T06:45:23.840Z,40.00
2018-10-11T06:46:23.858Z,40.00
2018-10-11T06:47:23.865Z,40.00
2018-10-11T06:48:23.884Z,40.00
2018-10-11T06:49:24.053Z,40.00
2018-10-11T06:50:24.030Z,40.00
2018-10-11T06:51:23.929Z,40.00
2018-10-11T06:52:23.941Z,44.00
2018-10-11T06:53:23.939Z,40.00
2018-10-11T06:54:23.972Z,44.00
2018-10-11T06:55:24.081Z,44.00
2018-10-11T06:56:24.009Z,44.00
2018-10-11T06:57:24.018Z,40.00
2018-10-11T06:58:24.040Z,40.00
2018-10-11T06:59:24.047Z,40.00
2018-10-11T07:00:24.211Z,40.00
2018-10-11T07:01:24.102Z,40.00
2018-10-11T07:02:24.091Z,40.00
2018-10-11T07:03:24.109Z,40.00
2018-10-11T07:04:24.121Z,40.00
2018-10-11T07:05:24.290Z,40.00
2018-10-11T07:06:24.139Z,40.00
2018-10-11T07:07:24.308Z,40.00
2018-10-11T07:08:24.180Z,40.00
2018-10-11T07:09:24.197Z,40.00
2018-10-11T07:10:24.415Z,40.00
2018-10-11T07:11:24.225Z,40.00
2018-10-11T07:12:24.238Z,40.00
2018-10-11T07:13:24.269Z,40.00
2018-10-11T07:14:24.271Z,40.00
2018-10-11T07:15:24.534Z,40.00
2018-10-11T07:16:24.298Z,40.00
2018-10-11T07:17:24.316Z,40.00
2018-10-11T07:18:24.327Z,40.00
2018-10-11T07:19:24.512Z,40.00
2018-10-11T07:20:24.510Z,40.00
2018-10-11T07:21:24.358Z,40.00
2018-10-11T07:22:24.375Z,40.00
2018-10-11T07:23:24.405Z,40.00
2018-10-11T07:24:24.409Z,40.00
2018-10-11T07:25:24.587Z,40.00
2018-10-11T07:26:24.433Z,40.00
2018-10-11T07:27:24.450Z,40.00
2018-10-11T07:28:24.476Z,40.00
2018-10-11T07:29:24.496Z,40.00
2018-10-11T07:30:24.661Z,36.00
2018-10-11T07:31:24.523Z,40.00
2018-10-11T07:32:24.547Z,40.00
2018-10-11T07:33:24.560Z,40.00
2018-10-11T07:34:24.593Z,40.00
2018-10-11T07:35:24.812Z,40.00
2018-10-11T07:36:24.603Z,40.00
2018-10-11T07:37:24.613Z,40.00
2018-10-11T07:38:24.634Z,40.00
2018-10-11T07:39:24.642Z,40.00
2018-10-11T07:40:24.851Z,40.00
2018-10-11T07:41:24.678Z,40.00
2018-10-11T07:42:24.689Z,44.00
2018-10-11T07:43:24.703Z,44.00
2018-10-11T07:44:24.719Z,40.00
2018-10-11T07:45:24.871Z,40.00
2018-10-11T07:46:24.755Z,40.00
2018-10-11T07:47:24.752Z,40.00
2018-10-11T07:48:24.784Z,40.00
2018-10-11T07:49:24.783Z,40.00
2018-10-11T07:50:24.965Z,44.00
2018-10-11T07:51:24.811Z,40.00
2018-10-11T07:52:24.842Z,44.00
2018-10-11T07:53:24.857Z,40.00
2018-10-11T07:54:24.872Z,40.00
2018-10-11T07:55:25.035Z,40.00
2018-10-11T07:56:24.898Z,40.00
2018-10-11T07:57:24.916Z,40.00
2018-10-11T07:58:24.930Z,40.00
2018-10-11T07:59:24.937Z,40.00
2018-10-11T08:00:24.962Z,40.00
2018-10-11T08:01:25.248Z,40.00
2018-10-11T08:02:24.989Z,40.00
2018-10-11T08:03:25.550Z,40.00
2018-10-11T08:04:25.008Z,40.00
2018-10-11T08:05:25.034Z,40.00
2018-10-11T08:06:25.162Z,40.00
2018-10-11T08:07:25.263Z,40.00
2018-10-11T08:08:25.174Z,40.00
2018-10-11T08:09:25.096Z,40.00
2018-10-11T08:10:25.127Z,40.00
2018-10-11T08:11:25.370Z,40.00
2018-10-11T08:12:25.128Z,40.00
2018-10-11T08:13:25.197Z,40.00
2018-10-11T08:14:25.175Z,40.00
2018-10-11T08:15:25.183Z,40.00
2018-10-11T08:16:25.402Z,40.00
2018-10-11T08:17:25.650Z,40.00
2018-10-11T08:18:25.231Z,44.00
2018-10-11T08:19:25.569Z,44.00
2018-10-11T08:20:25.294Z,44.00
2018-10-11T08:21:25.428Z,40.00
2018-10-11T08:22:25.290Z,44.00
2018-10-11T08:23:25.307Z,44.00
2018-10-11T08:24:25.374Z,40.00
2018-10-11T08:25:25.726Z,44.00
2018-10-11T08:26:25.927Z,48.00
2018-10-11T08:27:25.447Z,48.00
2018-10-11T08:28:25.379Z,52.00
2018-10-11T08:29:25.409Z,56.00
2018-10-11T08:30:25.413Z,60.00
2018-10-11T08:31:25.579Z,64.00
2018-10-11T08:32:25.528Z,64.00
2018-10-11T08:33:25.460Z,72.00
2018-10-11T08:34:25.477Z,84.00
2018-10-11T08:35:25.486Z,96.00
2018-10-11T08:36:25.753Z,100.00
2018-10-11T08:37:25.525Z,96.00
2018-10-11T08:38:25.568Z,100.00
2018-10-11T08:39:25.547Z,100.00
2018-10-11T08:40:25.578Z,116.00
2018-10-11T08:41:25.745Z,140.00
2018-10-11T08:42:25.591Z,120.00
2018-10-11T08:43:25.629Z,120.00
2018-10-11T08:44:25.623Z,124.00
2018-10-11T08:45:25.840Z,116.00
2018-10-11T08:46:25.800Z,104.00
2018-10-11T08:47:25.670Z,132.00
2018-10-11T08:48:25.674Z,176.00
2018-10-11T08:49:25.698Z,256.00
2018-10-11T08:50:25.797Z,284.00
2018-10-11T08:51:25.879Z,272.00
2018-10-11T08:52:25.745Z,244.00
2018-10-11T08:53:25.789Z,272.00
2018-10-11T08:54:25.774Z,332.00
2018-10-11T08:55:25.868Z,352.00
2018-10-11T08:56:25.953Z,364.00
2018-10-11T08:57:25.810Z,384.00
2018-10-11T08:58:25.832Z,324.00
2018-10-11T08:59:26.482Z,332.00
2018-10-11T09:00:25.867Z,380.00
2018-10-11T09:01:26.029Z,376.00
2018-10-11T09:02:25.896Z,356.00
2018-10-11T09:03:25.992Z,360.00
2018-10-11T09:04:25.922Z,372.00
2018-10-11T09:05:25.940Z,376.00
2018-10-11T09:06:25.954Z,396.00
2018-10-11T09:07:26.111Z,404.00
2018-10-11T09:08:25.985Z,428.00
2018-10-11T09:09:26.040Z,448.00
2018-10-11T09:10:37.858Z,500.00
2018-10-11T09:11:26.181Z,540.00
2018-10-11T09:12:26.144Z,544.00
2018-10-11T09:13:26.059Z,592.00
2018-10-11T09:14:26.078Z,616.00
2018-10-11T09:15:26.093Z,640.00
2018-10-11T09:16:26.101Z,660.00
2018-10-11T09:17:26.253Z,680.00
2018-10-11T09:18:26.133Z,772.00
2018-10-11T09:19:26.154Z,884.00
2018-10-11T09:20:26.169Z,912.00
2018-10-11T09:21:26.165Z,940.00
2018-10-11T09:22:26.349Z,896.00
2018-10-11T09:23:26.240Z,820.00
2018-10-11T09:24:26.225Z,900.00
2018-10-11T09:25:26.242Z,872.00
2018-10-11T09:26:26.259Z,728.00
2018-10-11T09:27:26.424Z,732.00
2018-10-11T09:28:26.291Z,792.00
2018-10-11T09:29:26.303Z,776.00
2018-10-11T09:30:26.322Z,920.00
2018-10-11T09:31:26.335Z,892.00
2018-10-11T09:32:26.490Z,880.00
2018-10-11T09:33:26.352Z,880.00
2018-10-11T09:34:26.377Z,908.00
2018-10-11T09:35:26.395Z,868.00
2018-10-11T09:36:26.415Z,896.00
2018-10-11T09:37:26.558Z,916.00
2018-10-11T09:38:26.442Z,976.00
2018-10-11T09:39:26.451Z,900.00
2018-10-11T09:40:26.473Z,776.00
2018-10-11T09:41:26.474Z,716.00
2018-10-11T09:42:26.653Z,708.00
2018-10-11T09:43:26.520Z,760.00
2018-10-11T09:44:26.536Z,872.00
2018-10-11T09:45:26.544Z,860.00
2018-10-11T09:46:26.551Z,792.00
2018-10-11T09:47:26.830Z,724.00
2018-10-11T09:48:26.597Z,684.00
2018-10-11T09:49:26.606Z,644.00
2018-10-11T09:50:26.621Z,628.00
2018-10-11T09:51:26.638Z,624.00
2018-10-11T09:52:26.901Z,628.00
2018-10-11T09:53:26.669Z,648.00
2018-10-11T09:54:26.776Z,648.00
2018-10-11T09:55:26.702Z,644.00
2018-10-11T09:56:26.714Z,612.00
2018-10-11T09:57:26.826Z,620.00
2018-10-11T09:58:26.756Z,632.00
2018-10-11T09:59:26.779Z,660.00
2018-10-11T10:00:26.779Z,704.00
2018-10-11T10:01:26.790Z,748.00
2018-10-11T10:02:26.906Z,828.00
2018-10-11T10:03:26.824Z,992.00
2018-10-11T10:04:26.836Z,1188.00
2018-10-11T10:05:26.855Z,1380.00
2018-10-11T10:06:27.060Z,1564.00
2018-10-11T10:07:27.130Z,1616.00
2018-10-11T10:08:26.911Z,1588.00
2018-10-11T10:09:26.916Z,1648.00
2018-10-11T10:10:26.931Z,1608.00
2018-10-11T10:11:26.939Z,1568.00
2018-10-11T10:12:26.961Z,1588.00
2018-10-11T10:13:27.076Z,1604.00
2018-10-11T10:14:26.989Z,1684.00
2018-10-11T10:15:27.018Z,1752.00
2018-10-11T10:16:27.021Z,1848.00
2018-10-11T10:17:27.036Z,1828.00
2018-10-11T10:18:27.157Z,1736.00
2018-10-11T10:19:27.066Z,1616.00
2018-10-11T10:20:27.103Z,1604.00
2018-10-11T10:21:27.513Z,1764.00
2018-10-11T10:22:27.115Z,2092.00
2018-10-11T10:23:27.223Z,2548.00
2018-10-11T10:24:27.142Z,2836.00
2018-10-11T10:25:27.390Z,2932.00
2018-10-11T10:26:27.159Z,2964.00
2018-10-11T10:27:27.241Z,2712.00
2018-10-11T10:28:27.387Z,2492.00
2018-10-11T10:29:27.219Z,2212.00
2018-10-11T10:30:27.236Z,1916.00
2018-10-11T10:31:27.245Z,1648.00
2018-10-11T10:32:27.266Z,1544.00
2018-10-11T10:33:27.451Z,1520.00
2018-10-11T10:34:27.292Z,1540.00
2018-10-11T10:35:27.310Z,1472.00
2018-10-11T10:36:27.324Z,1372.00
2018-10-11T10:37:27.330Z,1380.00
2018-10-11T10:38:27.555Z,1492.00
2018-10-11T10:39:27.373Z,1616.00
2018-10-11T10:40:27.384Z,1748.00
2018-10-11T10:41:27.401Z,1952.00
2018-10-11T10:42:27.413Z,2128.00
2018-10-11T10:43:27.588Z,2104.00
2018-10-11T10:44:27.448Z,1992.00
2018-10-11T10:45:27.445Z,1944.00
2018-10-11T10:46:27.482Z,1956.00
2018-10-11T10:47:27.493Z,1828.00
2018-10-11T10:48:27.645Z,1732.00
2018-10-11T10:49:27.522Z,1728.00
2018-10-11T10:50:27.538Z,1680.00
2018-10-11T10:51:27.552Z,1776.00
2018-10-11T10:52:27.557Z,1992.00
2018-10-11T10:53:27.739Z,2192.00
2018-10-11T10:54:27.591Z,2612.00
2018-10-11T10:55:27.614Z,2792.00
2018-10-11T10:56:27.635Z,2612.00
2018-10-11T10:57:27.649Z,2420.00
2018-10-11T10:58:27.871Z,2272.00
2018-10-11T10:59:27.684Z,2236.00
2018-10-11T11:00:27.697Z,2184.00
2018-10-11T11:01:27.713Z,2328.00
2018-10-11T11:02:27.711Z,2572.00
2018-10-11T11:03:27.851Z,2648.00
2018-10-11T11:04:27.760Z,2908.00
2018-10-11T11:05:27.769Z,2936.00
2018-10-11T11:06:27.788Z,2724.00
2018-10-11T11:07:27.907Z,2524.00
2018-10-11T11:08:27.934Z,2376.00
2018-10-11T11:09:27.836Z,2152.00
2018-10-11T11:10:27.928Z,1964.00
2018-10-11T11:11:27.851Z,1780.00
2018-10-11T11:12:27.906Z,1716.00
2018-10-11T11:13:28.006Z,1828.00
2018-10-11T11:14:27.908Z,2112.00
2018-10-11T11:15:27.927Z,2248.00
2018-10-11T11:16:27.947Z,2308.00
2018-10-11T11:17:27.942Z,2208.00
2018-10-11T11:18:28.111Z,2584.00
2018-10-11T11:19:27.999Z,2804.00
2018-10-11T11:20:27.995Z,2908.00
2018-10-11T11:21:28.025Z,2992.00
2018-10-11T11:22:28.040Z,2952.00
2018-10-11T11:23:28.217Z,3340.00
2018-10-11T11:24:28.055Z,3540.00
2018-10-11T11:25:28.086Z,3496.00
2018-10-11T11:26:28.087Z,3268.00
2018-10-11T11:27:28.096Z,3144.00
2018-10-11T11:28:28.304Z,3368.00
2018-10-11T11:29:28.143Z,3284.00
2018-10-11T11:30:28.234Z,3412.00
2018-10-11T11:31:28.178Z,3708.00
2018-10-11T11:32:28.202Z,3812.00
2018-10-11T11:33:28.321Z,4052.00
2018-10-11T11:34:28.226Z,4528.00
2018-10-11T11:35:28.241Z,4616.00
2018-10-11T11:36:28.258Z,4536.00
2018-10-11T11:37:28.278Z,5016.00
2018-10-11T11:38:28.668Z,5272.00
2018-10-11T11:39:28.306Z,5232.00
2018-10-11T11:40:28.320Z,4944.00
2018-10-11T11:41:28.338Z,4744.00
2018-10-11T11:42:28.357Z,4592.00
2018-10-11T11:43:28.515Z,4780.00
2018-10-11T11:44:28.373Z,4784.00
2018-10-11T11:45:28.402Z,4236.00
2018-10-11T11:46:28.402Z,4344.00
2018-10-11T11:47:28.422Z,4552.00
2018-10-11T11:48:28.551Z,4360.00
2018-10-11T11:49:28.460Z,4032.00
2018-10-11T11:50:28.527Z,3796.00
2018-10-11T11:51:28.500Z,3640.00
2018-10-11T11:52:28.563Z,3904.00
2018-10-11T11:53:28.777Z,4452.00
2018-10-11T11:54:28.543Z,4760.00
2018-10-11T11:55:28.564Z,5176.00
2018-10-11T11:56:28.578Z,5380.00
2018-10-11T11:57:28.590Z,5248.00
2018-10-11T11:58:28.814Z,4640.00
2018-10-11T11:59:28.631Z,4756.00
2018-10-11T12:00:28.641Z,4732.00
2018-10-11T12:01:28.659Z,4648.00
2018-10-11T12:02:28.739Z,4896.00
2018-10-11T12:03:28.830Z,4896.00
2018-10-11T12:04:29.114Z,4924.00
2018-10-11T12:05:28.737Z,4596.00
2018-10-11T12:06:28.740Z,4600.00
2018-10-11T12:07:28.748Z,4572.00
2018-10-11T12:08:28.964Z,4916.00
2018-10-11T12:09:28.786Z,5368.00
2018-10-11T12:10:28.844Z,5696.00
2018-10-11T12:11:28.819Z,5828.00
2018-10-11T12:12:28.820Z,5880.00
2018-10-11T12:13:28.956Z,6096.00
2018-10-11T12:14:28.869Z,6256.00
2018-10-11T12:15:28.884Z,6952.00
2018-10-11T12:16:28.924Z,7192.00
2018-10-11T12:17:28.918Z,6996.00
2018-10-11T12:18:28.972Z,6196.00
2018-10-11T12:19:29.050Z,5976.00
2018-10-11T12:20:28.965Z,6408.00
2018-10-11T12:21:29.170Z,6380.00
2018-10-11T12:22:29.009Z,6460.00
2018-10-11T12:23:29.034Z,5676.00
2018-10-11T12:24:29.132Z,5364.00
2018-10-11T12:25:29.029Z,5196.00
2018-10-11T12:26:29.079Z,6048.00
2018-10-11T12:27:29.082Z,6320.00
2018-10-11T12:28:29.260Z,5860.00
2018-10-11T12:29:29.211Z,5636.00
2018-10-11T12:30:29.131Z,5240.00
2018-10-11T12:31:29.132Z,5152.00
2018-10-11T12:32:29.171Z,4940.00
2018-10-11T12:33:29.190Z,4792.00
2018-10-11T12:34:29.297Z,4732.00
2018-10-11T12:35:29.217Z,4384.00
2018-10-11T12:36:29.301Z,4748.00
2018-10-11T12:37:29.247Z,5568.00
2018-10-11T12:38:29.307Z,6312.00
2018-10-11T12:39:29.381Z,6776.00